createdAt,value
2023-03-18T00:00:53.393Z,96586.00
2023-03-18T00:03:20.534Z,96584.00
2023-03-18T00:05:47.693Z,96585.00
2023-03-18T00:08:14.779Z,96588.00
2023-03-18T00:10:41.935Z,96577.00
2023-03-18T00:13:10.482Z,96573.00
2023-03-18T00:15:37.714Z,96584.00
2023-03-18T00:18:04.935Z,96594.00
2023-03-18T00:20:41.695Z,96586.00
2023-03-18T00:23:09.022Z,96586.00
2023-03-18T00:25:36.762Z,96585.00
2023-03-18T00:28:04.572Z,96588.00
2023-03-18T00:30:32.054Z,96592.00
2023-03-18T00:33:00.134Z,96597.00
2023-03-18T00:35:28.203Z,96592.00
2023-03-18T00:37:55.455Z,96604.00
2023-03-18T00:40:28.478Z,96599.00
2023-03-18T00:43:01.703Z,96593.00
2023-03-18T00:45:29.880Z,96592.00
2023-03-18T00:47:57.006Z,96588.00
2023-03-18T00:50:24.438Z,96585.00
2023-03-18T00:52:52.005Z,96611.00
2023-03-18T00:55:19.641Z,96607.00
2023-03-18T00:57:47.084Z,96606.00
2023-03-18T01:00:16.991Z,96599.00
2023-03-18T01:02:44.202Z,96588.00
2023-03-18T01:05:14.431Z,96601.00
2023-03-18T01:07:41.693Z,96620.00
2023-03-18T01:10:09.812Z,96624.00
2023-03-18T01:12:37.990Z,96622.00
2023-03-18T01:15:12.657Z,96626.00
2023-03-18T01:17:40.072Z,96617.00
2023-03-18T01:20:07.306Z,96615.00
2023-03-18T01:22:34.631Z,96609.00
2023-03-18T01:25:01.712Z,96597.00
2023-03-18T01:27:28.949Z,96608.00
2023-03-18T01:29:56.054Z,96601.00
2023-03-18T01:32:24.081Z,96601.00
2023-03-18T01:34:51.592Z,96600.00
2023-03-18T01:37:19.606Z,96595.00
2023-03-18T01:39:46.969Z,96591.00
2023-03-18T01:42:14.568Z,96582.00
2023-03-18T01:44:42.490Z,96585.00
2023-03-18T01:47:10.453Z,96591.00
2023-03-18T01:49:45.337Z,96586.00
2023-03-18T01:52:19.831Z,96586.00
2023-03-18T01:54:49.561Z,96581.00
2023-03-18T01:57:17.798Z,96578.00
2023-03-18T01:59:45.224Z,96587.00
2023-03-18T02:02:13.998Z,96582.00
2023-03-18T02:04:42.550Z,96592.00
2023-03-18T02:07:21.849Z,96584.00
2023-03-18T02:09:49.302Z,96583.00
2023-03-18T02:12:17.465Z,96582.00
2023-03-18T02:14:44.703Z,96584.00
2023-03-18T02:17:13.148Z,96580.00
2023-03-18T02:19:49.330Z,96578.00
2023-03-18T02:22:24.750Z,96577.00
2023-03-18T02:24:52.131Z,96576.00
2023-03-18T02:27:19.934Z,96576.00
2023-03-18T02:29:52.710Z,96580.00
2023-03-18T02:32:40.280Z,96584.00
2023-03-18T02:35:12.444Z,96583.00
2023-03-18T02:37:44.933Z,96583.00
2023-03-18T02:40:32.303Z,96580.00
2023-03-18T02:43:42.341Z,96576.00
2023-03-18T02:46:15.389Z,96576.00
2023-03-18T02:48:43.839Z,96576.00
2023-03-18T02:51:11.578Z,96574.00
2023-03-18T02:53:38.808Z,96577.00
2023-03-18T02:56:06.974Z,96580.00
2023-03-18T02:58:34.706Z,96579.00
2023-03-18T03:01:01.825Z,96574.00
2023-03-18T03:03:29.183Z,96573.00
2023-03-18T03:05:56.487Z,96566.00
2023-03-18T03:08:23.737Z,96580.00
2023-03-18T03:10:52.319Z,96584.00
2023-03-18T03:13:20.000Z,96585.00
2023-03-18T03:15:47.146Z,96581.00
2023-03-18T03:18:14.459Z,96585.00
2023-03-18T03:20:41.831Z,96587.00
2023-03-18T03:23:10.537Z,96590.00
2023-03-18T03:25:37.883Z,96595.00
2023-03-18T03:28:05.534Z,96589.00
2023-03-18T03:30:33.038Z,96593.00
2023-03-18T03:33:01.336Z,96596.00
2023-03-18T03:35:28.459Z,96592.00
2023-03-18T03:37:55.586Z,96602.00
2023-03-18T03:40:22.692Z,96594.00
2023-03-18T03:42:49.861Z,96597.00
2023-03-18T03:45:17.226Z,96604.00
2023-03-18T03:47:46.491Z,96591.00
2023-03-18T03:50:13.642Z,96597.00
2023-03-18T03:52:40.971Z,96591.00
2023-03-18T03:55:08.585Z,96590.00
2023-03-18T03:57:36.923Z,96591.00
2023-03-18T04:00:04.928Z,96592.00
2023-03-18T04:02:32.447Z,96594.00
2023-03-18T04:05:00.253Z,96590.00
2023-03-18T04:07:27.749Z,96603.00
2023-03-18T04:09:56.014Z,96588.00
2023-03-18T04:12:23.141Z,96583.00
2023-03-18T04:14:51.823Z,96591.00
2023-03-18T04:17:19.063Z,96591.00
2023-03-18T04:19:46.138Z,96596.00
2023-03-18T04:22:13.250Z,96593.00
2023-03-18T04:24:40.334Z,96591.00
2023-03-18T04:27:07.419Z,96585.00
2023-03-18T04:29:34.523Z,96584.00
2023-03-18T04:32:01.701Z,96594.00
2023-03-18T04:34:28.795Z,96592.00
2023-03-18T04:36:55.916Z,96589.00
2023-03-18T04:39:23.036Z,96602.00
2023-03-18T04:41:50.157Z,96592.00
2023-03-18T04:44:17.416Z,96589.00
2023-03-18T04:46:44.608Z,96587.00
2023-03-18T04:49:11.853Z,96590.00
2023-03-18T04:51:38.979Z,96595.00
2023-03-18T04:54:06.418Z,96597.00
2023-03-18T04:56:33.890Z,96599.00
2023-03-18T04:59:01.156Z,96593.00
2023-03-18T05:01:28.374Z,96595.00
2023-03-18T05:03:55.987Z,96597.00
2023-03-18T05:06:24.655Z,96586.00
2023-03-18T05:08:51.966Z,96590.00
2023-03-18T05:11:19.722Z,96594.00
2023-03-18T05:13:47.064Z,96590.00
2023-03-18T05:16:15.245Z,96592.00
2023-03-18T05:18:42.380Z,96593.00
2023-03-18T05:21:10.217Z,96590.00
2023-03-18T05:23:37.818Z,96597.00
2023-03-18T05:26:05.569Z,96591.00
2023-03-18T05:28:34.017Z,96604.00
2023-03-18T05:31:01.136Z,96596.00
2023-03-18T05:33:28.434Z,96601.00
2023-03-18T05:35:55.656Z,96598.00
2023-03-18T05:38:22.876Z,96597.00
2023-03-18T05:40:49.980Z,96602.00
2023-03-18T05:43:17.239Z,96602.00
2023-03-18T05:45:44.412Z,96613.00
2023-03-18T05:48:11.691Z,96607.00
2023-03-18T05:50:40.204Z,96613.00
2023-03-18T05:53:07.664Z,96613.00
2023-03-18T05:55:35.275Z,96603.00
2023-03-18T05:58:03.042Z,96603.00
2023-03-18T06:00:30.418Z,96598.00
2023-03-18T06:02:58.347Z,96608.00
2023-03-18T06:05:25.765Z,96615.00
2023-03-18T06:07:53.990Z,96605.00
2023-03-18T06:10:22.656Z,96616.00
2023-03-18T06:12:49.949Z,96615.00
2023-03-18T06:15:17.309Z,96615.00
2023-03-18T06:17:44.480Z,96621.00
2023-03-18T06:20:14.161Z,96623.00
2023-03-18T06:22:41.751Z,96625.00
2023-03-18T06:25:09.955Z,96618.00
2023-03-18T06:27:37.560Z,96619.00
2023-03-18T06:30:05.451Z,96625.00
2023-03-18T06:32:33.842Z,96619.00
2023-03-18T06:35:01.110Z,96623.00
2023-03-18T06:37:28.620Z,96631.00
2023-03-18T06:39:55.718Z,96632.00
2023-03-18T06:42:22.809Z,96631.00
2023-03-18T06:44:53.197Z,96628.00
2023-03-18T06:47:21.879Z,96629.00
2023-03-18T06:49:49.427Z,96632.00
2023-03-18T06:52:17.257Z,96627.00
2023-03-18T06:54:44.739Z,96639.00
2023-03-18T06:57:12.072Z,96636.00
2023-03-18T06:59:39.708Z,96639.00
2023-03-18T07:02:08.545Z,96639.00
2023-03-18T07:04:35.761Z,96644.00
2023-03-18T07:07:02.891Z,96638.00
2023-03-18T07:09:31.274Z,96638.00
2023-03-18T07:11:58.636Z,96634.00
2023-03-18T07:14:25.857Z,96645.00
2023-03-18T07:16:52.974Z,96639.00
2023-03-18T07:19:20.350Z,96633.00
2023-03-18T07:21:47.471Z,96642.00
2023-03-18T07:24:14.604Z,96650.00
2023-03-18T07:26:41.711Z,96658.00
2023-03-18T07:29:08.842Z,96660.00
2023-03-18T07:31:37.037Z,96655.00
2023-03-18T07:34:05.046Z,96656.00
2023-03-18T07:36:32.189Z,96666.00
2023-03-18T07:39:00.144Z,96669.00
2023-03-18T07:41:27.865Z,96663.00
2023-03-18T07:43:55.160Z,96665.00
2023-03-18T07:46:22.560Z,96660.00
2023-03-18T07:48:49.662Z,96669.00
2023-03-18T07:51:16.773Z,96666.00
2023-03-18T07:53:44.686Z,96667.00
2023-03-18T07:56:11.799Z,96666.00
2023-03-18T07:58:38.921Z,96671.00
2023-03-18T08:01:06.111Z,96659.00
2023-03-18T08:03:33.809Z,96666.00
2023-03-18T08:06:02.112Z,96659.00
2023-03-18T08:08:29.603Z,96665.00
2023-03-18T08:10:57.840Z,96666.00
2023-03-18T08:13:25.925Z,96670.00
2023-03-18T08:15:53.287Z,96674.00
2023-03-18T08:18:20.412Z,96668.00
2023-03-18T08:20:48.377Z,96673.00
2023-03-18T08:23:15.560Z,96673.00
2023-03-18T08:25:42.897Z,96669.00
2023-03-18T08:28:10.797Z,96669.00
2023-03-18T08:30:38.687Z,96672.00
2023-03-18T08:33:05.886Z,96680.00
2023-03-18T08:35:34.083Z,96676.00
2023-03-18T08:38:01.386Z,96679.00
2023-03-18T08:40:28.887Z,96660.00
2023-03-18T08:42:56.043Z,96672.00
2023-03-18T08:45:23.168Z,96674.00
2023-03-18T08:47:50.686Z,96677.00
2023-03-18T08:50:17.806Z,96668.00
2023-03-18T08:52:44.889Z,96666.00
2023-03-18T08:55:11.991Z,96666.00
2023-03-18T08:57:39.146Z,96654.00
2023-03-18T09:00:06.517Z,96666.00
2023-03-18T09:02:33.776Z,96651.00
2023-03-18T09:05:00.920Z,96663.00
2023-03-18T09:07:28.445Z,96661.00
2023-03-18T09:09:55.570Z,96657.00
2023-03-18T09:12:23.196Z,96657.00
2023-03-18T09:14:50.328Z,96659.00
2023-03-18T09:17:17.564Z,96653.00
2023-03-18T09:19:44.700Z,96645.00
2023-03-18T09:22:11.820Z,96652.00
2023-03-18T09:24:39.413Z,96644.00
2023-03-18T09:27:06.506Z,96642.00
2023-03-18T09:29:33.765Z,96640.00
2023-03-18T09:32:00.892Z,96649.00
2023-03-18T09:34:27.975Z,96645.00
2023-03-18T09:36:55.102Z,96639.00
2023-03-18T09:39:22.297Z,96645.00
2023-03-18T09:41:49.352Z,96636.00
2023-03-18T09:44:29.437Z,96645.00
2023-03-18T09:47:03.105Z,96652.00
2023-03-18T09:49:35.316Z,96650.00
2023-03-18T09:52:02.381Z,96641.00
2023-03-18T09:54:32.600Z,96639.00
2023-03-18T09:56:59.683Z,96641.00
2023-03-18T09:59:38.229Z,96623.00
2023-03-18T10:02:09.466Z,96639.00
2023-03-18T10:04:40.417Z,96645.00
2023-03-18T10:07:08.398Z,96635.00
2023-03-18T10:09:40.169Z,96633.00
2023-03-18T10:12:11.277Z,96633.00
2023-03-18T10:14:41.605Z,96638.00
2023-03-18T10:17:24.731Z,96639.00
2023-03-18T10:20:01.846Z,96646.00
2023-03-18T10:22:56.553Z,96652.00
2023-03-18T10:25:47.121Z,96636.00
2023-03-18T10:28:41.186Z,96649.00
2023-03-18T10:31:18.317Z,96645.00
2023-03-18T10:34:09.674Z,96644.00
2023-03-18T10:36:57.192Z,96639.00
2023-03-18T10:39:33.166Z,96628.00
2023-03-18T10:42:02.728Z,96641.00
2023-03-18T10:44:30.989Z,96633.00
2023-03-18T10:47:10.154Z,96624.00
2023-03-18T10:49:39.047Z,96619.00
2023-03-18T10:52:25.123Z,96622.00
2023-03-18T10:54:53.218Z,96618.00
2023-03-18T10:57:21.499Z,96613.00
2023-03-18T10:59:52.115Z,96606.00
2023-03-18T11:02:20.205Z,96611.00
2023-03-18T11:04:48.638Z,96608.00
2023-03-18T11:07:20.767Z,96605.00
2023-03-18T11:09:47.848Z,96601.00
2023-03-18T11:12:18.999Z,96599.00
2023-03-18T11:14:47.753Z,96599.00
2023-03-18T11:17:24.046Z,96603.00
2023-03-18T11:20:01.982Z,96614.00
2023-03-18T11:22:29.154Z,96601.00
2023-03-18T11:25:16.420Z,96598.00
2023-03-18T11:27:45.898Z,96589.00
2023-03-18T11:30:40.567Z,96593.00
2023-03-18T11:33:07.284Z,96596.00
2023-03-18T11:35:40.754Z,96594.00
2023-03-18T11:38:14.180Z,96593.00
2023-03-18T11:40:41.297Z,96607.00
2023-03-18T11:43:16.772Z,96604.00
2023-03-18T11:45:46.217Z,96585.00
2023-03-18T11:48:32.173Z,96583.00
2023-03-18T11:50:59.247Z,96587.00
2023-03-18T11:53:46.767Z,96587.00
2023-03-18T11:56:20.466Z,96577.00
2023-03-18T11:58:51.786Z,96575.00
2023-03-18T12:01:32.857Z,96568.00
2023-03-18T12:04:08.831Z,96566.00
2023-03-18T12:06:49.617Z,96573.00
2023-03-18T12:09:16.915Z,96562.00
2023-03-18T12:11:53.357Z,96555.00
2023-03-18T12:14:28.846Z,96555.00
2023-03-18T12:17:07.413Z,96554.00
2023-03-18T12:19:37.599Z,96554.00
2023-03-18T12:22:37.207Z,96550.00
2023-03-18T12:25:22.922Z,96552.00
2023-03-18T12:28:08.748Z,96554.00
2023-03-18T12:30:39.618Z,96561.00
2023-03-18T12:33:18.911Z,96550.00
2023-03-18T12:35:52.449Z,96552.00
2023-03-18T12:38:38.713Z,96553.00
2023-03-18T12:41:15.143Z,96554.00
2023-03-18T12:44:14.802Z,96555.00
2023-03-18T12:46:44.766Z,96560.00
2023-03-18T12:49:18.141Z,96557.00
2023-03-18T12:51:47.354Z,96560.00
2023-03-18T12:54:21.973Z,96555.00
2023-03-18T12:56:52.786Z,96556.00
2023-03-18T12:59:22.646Z,96548.00
2023-03-18T13:01:59.958Z,96552.00
2023-03-18T13:04:28.359Z,96550.00
2023-03-18T13:07:03.796Z,96551.00
2023-03-18T13:09:35.767Z,96540.00
2023-03-18T13:12:13.932Z,96542.00
2023-03-18T13:14:49.259Z,96540.00
2023-03-18T13:17:22.058Z,96546.00
2023-03-18T13:19:52.864Z,96537.00
2023-03-18T13:22:32.248Z,96542.00
2023-03-18T13:25:20.725Z,96544.00
2023-03-18T13:27:55.706Z,96546.00
2023-03-18T13:30:41.695Z,96537.00
2023-03-18T13:33:12.398Z,96538.00
2023-03-18T13:35:45.247Z,96533.00
2023-03-18T13:38:15.921Z,96537.00
2023-03-18T13:40:46.320Z,96543.00
2023-03-18T13:43:17.442Z,96536.00
2023-03-18T13:45:46.066Z,96536.00
2023-03-18T13:48:13.250Z,96540.00
2023-03-18T13:50:41.007Z,96531.00
2023-03-18T13:53:26.349Z,96537.00
2023-03-18T13:55:56.549Z,96528.00
2023-03-18T13:58:25.877Z,96536.00
2023-03-18T14:00:55.986Z,96541.00
2023-03-18T14:03:30.541Z,96533.00
2023-03-18T14:06:03.879Z,96527.00
2023-03-18T14:08:42.841Z,96520.00
2023-03-18T14:11:28.523Z,96522.00
2023-03-18T14:14:03.046Z,96520.00
2023-03-18T14:16:30.184Z,96525.00
2023-03-18T14:18:57.634Z,96525.00
2023-03-18T14:21:26.989Z,96517.00
2023-03-18T14:24:12.889Z,96520.00
2023-03-18T14:26:41.217Z,96517.00
2023-03-18T14:29:09.306Z,96514.00
2023-03-18T14:31:39.674Z,96514.00
2023-03-18T14:34:19.150Z,96516.00
2023-03-18T14:37:04.475Z,96506.00
2023-03-18T14:39:31.552Z,96509.00
2023-03-18T14:41:59.764Z,96502.00
2023-03-18T14:44:26.851Z,96504.00
2023-03-18T14:46:58.059Z,96505.00
2023-03-18T14:49:25.426Z,96503.00
2023-03-18T14:51:52.577Z,96506.00
2023-03-18T14:54:20.831Z,96504.00
2023-03-18T14:56:54.908Z,96499.00
2023-03-18T14:59:25.446Z,96503.00
2023-03-18T15:01:53.939Z,96504.00
2023-03-18T15:04:22.088Z,96493.00
2023-03-18T15:06:49.505Z,96490.00
2023-03-18T15:09:18.281Z,96489.00
2023-03-18T15:11:46.572Z,96500.00
2023-03-18T15:14:19.633Z,96492.00
2023-03-18T15:16:50.635Z,96496.00
2023-03-18T15:19:17.939Z,96490.00
2023-03-18T15:21:45.204Z,96485.00
2023-03-18T15:24:12.833Z,96497.00
2023-03-18T15:26:40.490Z,96491.00
2023-03-18T15:29:18.275Z,96498.00
2023-03-18T15:31:45.866Z,96495.00
2023-03-18T15:34:12.972Z,96484.00
2023-03-18T15:36:44.370Z,96478.00
2023-03-18T15:39:21.489Z,96486.00
2023-03-18T15:41:53.273Z,96491.00
2023-03-18T15:44:28.832Z,96489.00
2023-03-18T15:46:56.456Z,96489.00
2023-03-18T15:49:27.531Z,96488.00
2023-03-18T15:51:58.409Z,96479.00
2023-03-18T15:54:29.900Z,96480.00
2023-03-18T15:56:57.945Z,96484.00
2023-03-18T15:59:27.202Z,96480.00
2023-03-18T16:01:55.280Z,96485.00
2023-03-18T16:04:22.879Z,96487.00
2023-03-18T16:06:50.204Z,96486.00
2023-03-18T16:09:18.578Z,96486.00
2023-03-18T16:11:47.780Z,96484.00
2023-03-18T16:14:16.302Z,96491.00
2023-03-18T16:16:43.726Z,96495.00
2023-03-18T16:19:14.419Z,96492.00
2023-03-18T16:21:41.535Z,96498.00
2023-03-18T16:24:08.696Z,96498.00
2023-03-18T16:26:35.835Z,96506.00
2023-03-18T16:29:03.874Z,96501.00
2023-03-18T16:31:31.515Z,96506.00
2023-03-18T16:33:58.668Z,96507.00
2023-03-18T16:36:28.132Z,96502.00
2023-03-18T16:38:56.027Z,96501.00
2023-03-18T16:41:23.160Z,96518.00
2023-03-18T16:43:50.335Z,96509.00
2023-03-18T16:46:17.906Z,96508.00
2023-03-18T16:48:45.055Z,96511.00
2023-03-18T16:51:13.004Z,96516.00
2023-03-18T16:53:40.104Z,96514.00
2023-03-18T16:56:17.208Z,96518.00
2023-03-18T16:58:44.622Z,96525.00
2023-03-18T17:01:16.412Z,96525.00
2023-03-18T17:03:44.160Z,96526.00
2023-03-18T17:06:12.578Z,96530.00
2023-03-18T17:08:40.063Z,96531.00
2023-03-18T17:11:07.500Z,96535.00
2023-03-18T17:13:34.687Z,96540.00
2023-03-18T17:16:01.801Z,96539.00
2023-03-18T17:18:29.030Z,96541.00
2023-03-18T17:20:56.107Z,96539.00
2023-03-18T17:23:25.244Z,96543.00
2023-03-18T17:25:53.123Z,96549.00
2023-03-18T17:28:27.367Z,96543.00
2023-03-18T17:30:54.928Z,96547.00
2023-03-18T17:33:27.423Z,96541.00
2023-03-18T17:35:54.958Z,96539.00
2023-03-18T17:38:22.292Z,96547.00
2023-03-18T17:40:49.643Z,96547.00
2023-03-18T17:43:25.931Z,96554.00
2023-03-18T17:45:53.883Z,96554.00
2023-03-18T17:48:21.796Z,96544.00
2023-03-18T17:50:49.528Z,96555.00
2023-03-18T17:53:21.305Z,96552.00
2023-03-18T17:55:48.416Z,96552.00
2023-03-18T17:58:17.934Z,96555.00
2023-03-18T18:00:46.272Z,96558.00
2023-03-18T18:03:26.822Z,96560.00
2023-03-18T18:05:54.605Z,96558.00
2023-03-18T18:08:22.410Z,96554.00
2023-03-18T18:10:49.568Z,96560.00
2023-03-18T18:13:17.956Z,96551.00
2023-03-18T18:15:45.927Z,96556.00
2023-03-18T18:18:25.195Z,96556.00
2023-03-18T18:21:23.959Z,96563.00
2023-03-18T18:24:11.956Z,96568.00
2023-03-18T18:32:48.301Z,96576.00
2023-03-18T18:35:17.723Z,96578.00
2023-03-18T18:44:09.613Z,96576.00
2023-03-18T18:47:04.087Z,96581.00
2023-03-18T18:49:32.345Z,96579.00
2023-03-18T18:52:01.813Z,96574.00
2023-03-18T18:54:28.929Z,96573.00
2023-03-18T18:56:56.091Z,96574.00
2023-03-18T18:59:33.743Z,96579.00
2023-03-18T19:02:01.034Z,96589.00
2023-03-18T19:04:29.152Z,96579.00
2023-03-18T19:06:56.324Z,96574.00
2023-03-18T19:09:24.306Z,96589.00
2023-03-18T19:11:51.673Z,96583.00
2023-03-18T19:14:24.447Z,96579.00
2023-03-18T19:16:52.277Z,96594.00
2023-03-18T19:19:20.760Z,96591.00
2023-03-18T19:21:49.064Z,96592.00
2023-03-18T19:24:28.809Z,96593.00
2023-03-18T19:26:57.429Z,96595.00
2023-03-18T19:29:24.790Z,96596.00
2023-03-18T19:31:52.741Z,96603.00
2023-03-18T19:34:20.432Z,96611.00
2023-03-18T19:36:48.618Z,96607.00
2023-03-18T19:39:16.725Z,96605.00
2023-03-18T19:41:44.193Z,96597.00
2023-03-18T19:44:18.174Z,96600.00
2023-03-18T19:46:45.519Z,96597.00
2023-03-18T19:49:12.577Z,96594.00
2023-03-18T19:51:39.735Z,96597.00
2023-03-18T19:54:12.984Z,96601.00
2023-03-18T19:56:40.096Z,96604.00
2023-03-18T19:59:08.653Z,96608.00
2023-03-18T20:01:35.866Z,96611.00
2023-03-18T20:04:03.067Z,96614.00
2023-03-18T20:06:30.347Z,96619.00
2023-03-18T20:08:57.427Z,96622.00
2023-03-18T20:11:24.553Z,96626.00
2023-03-18T20:13:51.847Z,96625.00
2023-03-18T20:16:19.729Z,96616.00
2023-03-18T20:18:46.859Z,96629.00
2023-03-18T20:21:34.670Z,96626.00
2023-03-18T20:24:03.188Z,96631.00
2023-03-18T20:26:30.269Z,96632.00
2023-03-18T20:28:58.535Z,96629.00
2023-03-18T20:31:25.826Z,96641.00
2023-03-18T20:33:52.952Z,96637.00
2023-03-18T20:36:20.071Z,96636.00
2023-03-18T20:38:47.869Z,96641.00
2023-03-18T20:41:16.369Z,96646.00
2023-03-18T20:43:44.474Z,96648.00
2023-03-18T20:46:12.562Z,96650.00
2023-03-18T20:48:39.682Z,96650.00
2023-03-18T20:51:17.728Z,96655.00
2023-03-18T20:53:44.822Z,96659.00
2023-03-18T20:56:11.989Z,96664.00
2023-03-18T20:58:39.080Z,96681.00
2023-03-18T21:01:06.241Z,96681.00
2023-03-18T21:03:34.482Z,96682.00
2023-03-18T21:06:03.458Z,96679.00
2023-03-18T21:08:31.108Z,96677.00
2023-03-18T21:11:01.499Z,96680.00
2023-03-18T21:13:38.012Z,96677.00
2023-03-18T21:16:06.823Z,96677.00
2023-03-18T21:18:35.575Z,96668.00
2023-03-18T21:21:02.688Z,96669.00
2023-03-18T21:23:31.658Z,96666.00
2023-03-18T21:25:58.903Z,96668.00
2023-03-18T21:28:27.261Z,96666.00
2023-03-18T21:30:57.535Z,96658.00
2023-03-18T21:33:26.551Z,96674.00
2023-03-18T21:35:56.951Z,96673.00
2023-03-18T21:38:24.613Z,96679.00
2023-03-18T21:40:52.966Z,96679.00
2023-03-18T21:43:25.777Z,96685.00
2023-03-18T21:45:53.118Z,96677.00
2023-03-18T21:48:21.225Z,96679.00
2023-03-18T21:50:48.416Z,96687.00
2023-03-18T21:53:16.337Z,96681.00
2023-03-18T21:55:43.454Z,96676.00
2023-03-18T21:58:13.420Z,96679.00
2023-03-18T22:00:40.536Z,96680.00
2023-03-18T22:03:14.640Z,96671.00
2023-03-18T22:05:41.758Z,96668.00
2023-03-18T22:08:08.858Z,96663.00
2023-03-18T22:10:36.168Z,96668.00
2023-03-18T22:13:10.103Z,96665.00
2023-03-18T22:15:38.056Z,96674.00
2023-03-18T22:18:05.484Z,96680.00
2023-03-18T22:20:34.677Z,96677.00
2023-03-18T22:23:02.642Z,96658.00
2023-03-18T22:25:30.970Z,96669.00
2023-03-18T22:27:58.605Z,96658.00
2023-03-18T22:30:26.152Z,96663.00
2023-03-18T22:32:53.305Z,96672.00
2023-03-18T22:35:21.557Z,96677.00
2023-03-18T22:37:49.014Z,96666.00
2023-03-18T22:40:26.280Z,96677.00
2023-03-18T22:42:54.205Z,96684.00
2023-03-18T22:45:40.860Z,96674.00
2023-03-18T22:48:10.766Z,96679.00
2023-03-18T22:50:37.856Z,96683.00
2023-03-18T22:53:06.295Z,96683.00
2023-03-18T22:55:34.914Z,96681.00
2023-03-18T22:58:02.140Z,96687.00
2023-03-18T23:00:31.361Z,96685.00
2023-03-18T23:02:58.532Z,96688.00
2023-03-18T23:05:25.956Z,96680.00
2023-03-18T23:07:53.264Z,96689.00
2023-03-18T23:10:20.588Z,96683.00
2023-03-18T23:12:47.905Z,96688.00
2023-03-18T23:15:18.780Z,96694.00
2023-03-18T23:17:46.218Z,96687.00
2023-03-18T23:20:14.074Z,96692.00
2023-03-18T23:22:41.328Z,96699.00
2023-03-18T23:25:11.850Z,96708.00
2023-03-18T23:27:38.939Z,96701.00
2023-03-18T23:30:06.828Z,96702.00
2023-03-18T23:32:35.340Z,96708.00
2023-03-18T23:35:02.579Z,96705.00
2023-03-18T23:37:29.695Z,96703.00
2023-03-18T23:39:56.774Z,96702.00
2023-03-18T23:42:23.889Z,96706.00
2023-03-18T23:44:51.173Z,96712.00
2023-03-18T23:47:18.271Z,96715.00
2023-03-18T23:49:45.462Z,96709.00
2023-03-18T23:52:15.621Z,96726.00
2023-03-18T23:54:42.799Z,96727.00
2023-03-18T23:57:10.489Z,96730.00
2023-03-18T23:59:37.862Z,96730.00
